Time;durP1;ratioP1;P1;durP2;ratioP2;P2;SDS_P1;SDS_P2;PMS_P1;PMS_P2;Temp;Humidity;BMP_temperature;BMP_pressure;BME280_temperature;BME280_humidity;BME280_pressure;Samples;Min_cycle;Max_cycle;Signal;HPM_P1;HPM_P2
2022/08/12 00:44:38;;;;;;;4.43;3.97;;;21.00;99.90;;;;;;4995945;28;20468;-68
2022/08/12 00:47:05;;;;;;;3.93;3.40;;;21.00;99.90;;;;;;4994620;28;20453;-68
2022/08/12 00:49:32;;;;;;;3.97;3.20;;;21.10;99.90;;;;;;5000153;28;20484;-68
2022/08/12 00:52:08;;;;;;;4.97;3.83;;;21.10;99.90;;;;;;4991849;28;20458;-68
2022/08/12 00:54:41;;;;;;;4.80;3.50;;;21.00;99.90;;;;;;4992514;28;21047;-68
2022/08/12 00:57:12;;;;;;;4.00;3.70;;;21.00;99.90;;;;;;4997170;28;20950;-68
2022/08/12 00:59:45;;;;;;;5.43;4.20;;;20.90;99.90;;;;;;5000991;28;20461;-68
2022/08/12 01:02:16;;;;;;;6.60;3.53;;;20.90;99.90;;;;;;4994917;28;21000;-68
2022/08/12 01:13:04;;;;;;;4.03;3.50;;;20.60;99.90;;;;;;4986839;28;20454;-68
2022/08/12 01:15:31;;;;;;;4.80;4.10;;;20.60;99.90;;;;;;4988715;28;20627;-69
2022/08/12 01:17:58;;;;;;;4.20;3.80;;;20.60;99.90;;;;;;4989795;28;20458;-68
2022/08/12 01:20:36;;;;;;;4.63;4.20;;;20.60;99.90;;;;;;4998014;28;20462;-69
2022/08/12 01:23:45;;;;;;;4.60;3.50;;;20.50;99.90;;;;;;4997595;28;20467;-68
2022/08/12 01:26:17;;;;;;;6.67;3.37;;;20.50;99.90;;;;;;4995220;28;20461;-69
2022/08/12 01:28:46;;;;;;;6.40;3.70;;;20.40;99.90;;;;;;4997977;28;20970;-68
2022/08/12 01:31:15;;;;;;;7.37;5.80;;;20.30;99.90;;;;;;5000253;28;21007;-68
2022/08/12 01:33:50;;;;;;;6.37;5.33;;;20.10;99.90;;;;;;4997540;28;20481;-68
2022/08/12 01:36:21;;;;;;;8.80;5.57;;;20.20;99.90;;;;;;4989156;28;20655;-68
2022/08/12 01:38:50;;;;;;;7.27;4.43;;;20.30;99.90;;;;;;4998484;28;20461;-68
2022/08/12 01:41:24;;;;;;;6.10;3.80;;;20.20;99.90;;;;;;4993653;28;20484;-68
2022/08/12 01:43:53;;;;;;;7.57;5.10;;;20.20;99.90;;;;;;4996781;28;20488;-69
2022/08/12 01:46:29;;;;;;;6.77;4.90;;;20.20;99.90;;;;;;4992098;28;20472;-68
2022/08/12 01:49:06;;;;;;;5.20;4.40;;;20.10;99.90;;;;;;4994640;28;20549;-68
2022/08/12 01:51:39;;;;;;;7.17;4.90;;;20.20;99.90;;;;;;4993778;28;20453;-69
2022/08/12 01:54:09;;;;;;;3.93;3.63;;;20.20;99.90;;;;;;4995518;28;20485;-69
2022/08/12 01:56:44;;;;;;;9.57;4.40;;;20.20;99.90;;;;;;5001875;28;20505;-68
2022/08/12 02:02:06;;;;;;;6.50;4.40;;;20.10;99.90;;;;;;4992963;28;20482;-68
2022/08/12 02:13:34;;;;;;;5.77;4.53;;;20.10;99.90;;;;;;4994504;28;20550;-68
2022/08/12 02:16:07;;;;;;;5.20;4.70;;;19.90;99.90;;;;;;4991121;28;20490;-69
2022/08/12 02:18:43;;;;;;;4.60;4.20;;;19.70;99.90;;;;;;4993549;28;20462;-68
2022/08/12 02:21:22;;;;;;;5.50;4.47;;;19.70;99.90;;;;;;4987491;28;20511;-68
2022/08/12 02:23:50;;;;;;;6.60;4.53;;;19.60;99.90;;;;;;4994105;28;20480;-69
2022/08/12 02:26:18;;;;;;;6.43;5.20;;;19.60;99.90;;;;;;4993379;28;20443;-68
2022/08/12 02:28:47;;;;;;;6.97;4.37;;;19.60;99.90;;;;;;5000502;28;20469;-68
2022/08/12 02:31:14;;;;;;;7.63;5.00;;;19.60;99.90;;;;;;4998054;28;20467;-69
2022/08/12 02:33:43;;;;;;;4.50;3.80;;;19.50;99.90;;;;;;4987295;28;20615;-68
2022/08/12 02:36:11;;;;;;;5.30;4.17;;;19.40;99.90;;;;;;4990854;28;20873;-68
2022/08/12 02:38:41;;;;;;;5.30;4.53;;;19.40;99.90;;;;;;4989367;28;20505;-68
2022/08/12 02:41:12;;;;;;;5.20;4.50;;;19.40;99.90;;;;;;4988679;28;20466;-68
2022/08/12 02:43:45;;;;;;;4.63;4.23;;;19.30;99.90;;;;;;4978547;28;20920;-69
2022/08/12 02:46:15;;;;;;;5.93;4.23;;;19.40;99.90;;;;;;4996605;28;20474;-68
2022/08/12 02:48:51;;;;;;;7.40;3.73;;;19.40;99.90;;;;;;4991045;28;20954;-68
2022/08/12 02:51:20;;;;;;;4.70;4.20;;;19.50;99.90;;;;;;4994697;28;20469;-68
2022/08/12 02:53:47;;;;;;;4.37;3.90;;;19.40;99.90;;;;;;4982271;28;20473;-68
2022/08/12 02:56:16;;;;;;;6.60;4.80;;;19.40;99.90;;;;;;4992548;28;20547;-68
2022/08/12 02:58:45;;;;;;;7.27;4.17;;;19.30;99.90;;;;;;4984690;28;20470;-68
2022/08/12 03:01:17;;;;;;;7.50;3.90;;;19.40;99.90;;;;;;4978256;28;20458;-67
2022/08/12 03:03:49;;;;;;;5.93;4.80;;;19.50;99.90;;;;;;4980484;28;20494;-69
2022/08/12 03:06:21;;;;;;;5.80;5.00;;;19.40;99.90;;;;;;4987879;28;20457;-68
2022/08/12 03:08:49;;;;;;;4.90;4.27;;;19.30;99.90;;;;;;4989030;28;20536;-68
2022/08/12 03:11:21;;;;;;;9.53;4.70;;;19.10;99.90;;;;;;4992091;28;20468;-67
2022/08/12 03:13:52;;;;;;;5.67;4.30;;;19.10;99.90;;;;;;4999732;28;20493;-68
2022/08/12 03:16:22;;;;;;;5.70;3.90;;;19.00;99.90;;;;;;4990325;28;21343;-68
2022/08/12 03:18:50;;;;;;;6.10;4.10;;;19.00;99.90;;;;;;4980890;28;20834;-68
2022/08/12 03:21:17;;;;;;;4.97;4.30;;;19.00;99.90;;;;;;4986412;28;20458;-68
2022/08/12 03:23:46;;;;;;;8.70;5.77;;;19.00;99.90;;;;;;4983078;28;20489;-68
2022/08/12 03:26:14;;;;;;;4.80;4.30;;;18.90;99.90;;;;;;4980680;28;20458;-68
2022/08/12 03:28:52;;;;;;;5.37;4.53;;;19.00;99.90;;;;;;4998485;28;21000;-68
2022/08/12 03:31:23;;;;;;;5.30;4.27;;;18.90;99.90;;;;;;4996396;28;20511;-68
2022/08/12 03:33:51;;;;;;;5.10;4.60;;;19.00;99.90;;;;;;5003528;28;20505;-68
2022/08/12 03:36:19;;;;;;;5.47;4.43;;;19.00;99.90;;;;;;4992030;28;20509;-68
2022/08/12 03:38:59;;;;;;;5.00;4.00;;;19.00;99.90;;;;;;4996716;28;20473;-68
2022/08/12 03:41:34;;;;;;;7.10;4.57;;;18.90;99.90;;;;;;5003856;28;20453;-67
2022/08/12 04:00:51;;;;;;;9.13;5.90;;;18.80;99.90;;;;;;4995647;28;20522;-69
2022/08/12 04:06:08;;;;;;;8.50;5.00;;;18.70;99.90;;;;;;4986079;28;20453;-69
2022/08/12 04:08:36;;;;;;;5.50;4.70;;;18.70;99.90;;;;;;4976516;28;20575;-70
2022/08/12 04:13:49;;;;;;;7.20;5.70;;;18.70;99.90;;;;;;5002935;28;20496;-68
2022/08/12 04:16:17;;;;;;;10.50;4.93;;;18.70;99.90;;;;;;4995232;28;20460;-68
2022/08/12 04:18:45;;;;;;;8.03;5.40;;;18.70;99.90;;;;;;5002311;28;20465;-69
2022/08/12 04:21:12;;;;;;;7.63;5.40;;;18.70;99.90;;;;;;4994297;28;20544;-69
2022/08/12 04:23:41;;;;;;;10.00;4.60;;;18.60;99.90;;;;;;4983487;28;20848;-68
2022/08/12 04:26:09;;;;;;;5.23;4.50;;;18.50;99.90;;;;;;4994037;28;20462;-68
2022/08/12 04:28:36;;;;;;;6.33;4.60;;;18.50;99.90;;;;;;5000312;28;20481;-69
2022/08/12 04:31:03;;;;;;;6.13;4.80;;;18.50;99.90;;;;;;4991276;28;20465;-68
2022/08/12 04:33:31;;;;;;;15.40;5.13;;;18.30;99.90;;;;;;4977440;28;20469;-68
2022/08/12 04:35:59;;;;;;;7.67;5.07;;;18.40;99.90;;;;;;4990184;28;20555;-69
2022/08/12 04:38:28;;;;;;;6.00;5.20;;;18.50;99.90;;;;;;4980205;28;20462;-69
2022/08/12 04:40:57;;;;;;;13.67;6.90;;;18.60;99.90;;;;;;4979400;28;20465;-69
2022/08/12 04:43:24;;;;;;;11.17;5.83;;;18.70;99.90;;;;;;4990503;28;20465;-69
2022/08/12 04:45:51;;;;;;;13.57;6.10;;;18.70;99.90;;;;;;4994397;28;20494;-69
2022/08/12 04:48:18;;;;;;;6.93;5.47;;;18.80;99.90;;;;;;4991274;28;20472;-69
2022/08/12 04:50:45;;;;;;;10.47;6.50;;;18.90;99.90;;;;;;4998295;28;20948;-69
2022/08/12 04:53:14;;;;;;;18.97;6.80;;;19.00;99.90;;;;;;4991407;28;20833;-69
2022/08/12 04:55:44;;;;;;;12.07;6.07;;;19.10;99.90;;;;;;5003760;28;20485;-69
2022/08/12 04:58:12;;;;;;;7.40;5.20;;;19.10;99.90;;;;;;4997550;28;20533;-69
2022/08/12 05:00:39;;;;;;;5.67;5.03;;;19.20;99.90;;;;;;4995315;28;20462;-69
2022/08/12 05:03:06;;;;;;;8.33;4.37;;;19.30;99.90;;;;;;4992210;28;20470;-69
2022/08/12 05:05:35;;;;;;;8.37;4.83;;;19.40;99.90;;;;;;5004016;28;20930;-70
2022/08/12 05:08:03;;;;;;;9.53;5.83;;;19.50;99.90;;;;;;4991271;28;20462;-69
2022/08/12 05:10:32;;;;;;;12.40;5.47;;;19.80;99.90;;;;;;4992560;28;20991;-68
2022/08/12 05:13:02;;;;;;;8.73;5.93;;;20.00;99.90;;;;;;5006674;28;20465;-69
2022/08/12 05:15:29;;;;;;;8.30;5.50;;;20.20;99.90;;;;;;5005571;28;20481;-68
2022/08/12 05:17:56;;;;;;;6.70;5.90;;;20.50;99.90;;;;;;5009856;28;20487;-70
2022/08/12 05:20:24;;;;;;;10.67;5.57;;;20.80;99.90;;;;;;5008232;28;20450;-69
2022/08/12 05:23:04;;;;;;;10.30;5.57;;;21.00;99.90;;;;;;5007536;28;20455;-69
2022/08/12 05:25:32;;;;;;;7.87;7.17;;;21.30;99.90;;;;;;4995886;28;20474;-69
2022/08/12 05:28:00;;;;;;;19.10;5.70;;;21.80;99.90;;;;;;5006248;28;20451;-69
2022/08/12 05:30:27;;;;;;;5.57;4.40;;;22.00;99.90;;;;;;4998782;28;20488;-69
2022/08/12 05:32:54;;;;;;;6.67;4.60;;;22.20;99.90;;;;;;4996032;28;21001;-69
2022/08/12 05:35:21;;;;;;;6.17;5.67;;;22.40;99.90;;;;;;4999360;28;20516;-69
2022/08/12 05:38:54;;;;;;;5.43;4.93;;;22.60;99.90;;;;;;5000454;28;20485;-69
2022/08/12 05:40:37;;;;;;;13.73;5.80;;;22.90;99.90;;;;;;4995892;28;20469;-69
2022/08/12 05:43:04;;;;;;;6.40;5.10;;;23.10;99.90;;;;;;4999191;28;20925;-69
2022/08/12 05:45:31;;;;;;;6.20;5.37;;;23.10;99.90;;;;;;5001004;28;20485;-70
2022/08/12 05:47:58;;;;;;;7.70;5.27;;;23.10;99.90;;;;;;5019381;22;21214;-68
2022/08/12 05:50:25;;;;;;;10.30;5.07;;;23.30;99.90;;;;;;4987119;28;20476;-66
2022/08/12 05:52:52;;;;;;;5.80;5.30;;;23.40;99.90;;;;;;4993109;28;20468;-67
2022/08/12 05:55:19;;;;;;;6.50;5.90;;;23.70;99.90;;;;;;5000290;28;20458;-67
2022/08/12 05:57:54;;;;;;;7.20;6.33;;;24.10;99.90;;;;;;4997590;28;21003;-68
2022/08/12 06:00:25;;;;;;;6.63;4.93;;;24.40;99.90;;;;;;4998064;28;20824;-68
2022/08/12 06:02:55;;;;;;;10.93;6.13;;;24.80;99.90;;;;;;4997725;28;20460;-68
2022/08/12 06:05:22;;;;;;;5.90;5.40;;;24.90;99.90;;;;;;4992169;28;20555;-68
2022/08/12 06:07:49;;;;;;;9.03;6.30;;;25.30;99.90;;;;;;4989237;28;20485;-68
2022/08/12 06:10:16;;;;;;;8.30;7.47;;;25.50;99.90;;;;;;4993946;28;20937;-68
2022/08/12 06:12:48;;;;;;;7.30;6.23;;;25.80;99.90;;;;;;4992832;28;20463;-67
2022/08/12 06:15:16;;;;;;;6.10;5.33;;;25.90;99.90;;;;;;4992738;28;20467;-67
2022/08/12 06:17:44;;;;;;;12.13;5.20;;;26.10;99.90;;;;;;4994408;28;20985;-67
2022/08/12 06:20:14;;;;;;;12.40;5.27;;;26.10;99.80;;;;;;4997862;28;20845;-68
2022/08/12 06:22:41;;;;;;;8.30;5.50;;;26.10;99.50;;;;;;5003885;28;20465;-67
2022/08/12 06:25:08;;;;;;;12.60;5.87;;;26.40;98.90;;;;;;5002186;28;20487;-66
2022/08/12 06:27:41;;;;;;;5.57;5.07;;;26.50;98.10;;;;;;4992705;28;20482;-66
2022/08/12 06:30:10;;;;;;;6.13;5.53;;;26.50;97.50;;;;;;4999060;28;20469;-67
2022/08/12 06:32:38;;;;;;;7.40;5.07;;;26.60;97.80;;;;;;4997445;28;20938;-66
2022/08/12 06:35:06;;;;;;;7.43;5.33;;;27.00;97.10;;;;;;4999576;28;20996;-67
2022/08/12 06:37:38;;;;;;;6.50;5.23;;;27.50;96.10;;;;;;4991220;28;20860;-67
2022/08/12 06:40:07;;;;;;;5.90;5.37;;;27.40;95.20;;;;;;4995819;28;20476;-67
2022/08/12 06:42:50;;;;;;;10.23;5.70;;;27.80;95.30;;;;;;4993790;28;20755;-67
2022/08/12 06:45:18;;;;;;;8.50;5.47;;;28.00;94.40;;;;;;4991666;28;20934;-67
2022/08/12 06:47:46;;;;;;;10.70;5.23;;;27.90;93.70;;;;;;4995552;28;20489;-67
2022/08/12 06:50:15;;;;;;;9.90;5.40;;;28.10;93.60;;;;;;4994231;28;20470;-68
2022/08/12 06:52:43;;;;;;;7.80;4.77;;;28.60;92.40;;;;;;4991390;28;20465;-67
2022/08/12 06:55:12;;;;;;;8.17;6.67;;;29.00;90.90;;;;;;4988819;28;20939;-68
2022/08/12 06:57:53;;;;;;;7.23;5.47;;;28.90;91.00;;;;;;4992047;28;20485;-68
2022/08/12 07:00:22;;;;;;;11.07;5.10;;;28.90;91.00;;;;;;4992692;28;20508;-68
2022/08/12 07:02:50;;;;;;;7.70;5.60;;;29.20;90.60;;;;;;4998737;28;20527;-67
2022/08/12 07:05:23;;;;;;;8.70;4.80;;;29.40;90.00;;;;;;4997788;28;20464;-68
2022/08/12 07:08:05;;;;;;;11.23;4.43;;;29.70;88.00;;;;;;4997104;28;20478;-68
2022/08/12 07:10:33;;;;;;;6.93;4.63;;;29.70;88.60;;;;;;5001509;28;20446;-68
2022/08/12 07:13:03;;;;;;;8.30;4.80;;;29.80;86.10;;;;;;4990622;28;20965;-66
2022/08/12 07:15:30;;;;;;;4.20;3.70;;;29.70;85.00;;;;;;4997184;28;20561;-67
2022/08/12 07:18:04;;;;;;;11.63;5.27;;;29.70;83.90;;;;;;4994083;28;20513;-67
2022/08/12 07:20:34;;;;;;;7.00;4.50;;;29.90;83.60;;;;;;4990900;28;20509;-67
2022/08/12 07:23:03;;;;;;;6.00;4.07;;;30.60;82.80;;;;;;4993301;28;21139;-67
2022/08/12 07:25:30;;;;;;;9.60;4.70;;;30.70;81.50;;;;;;4992267;28;20982;-67
2022/08/12 07:28:02;;;;;;;4.27;3.87;;;30.60;80.80;;;;;;4996607;28;20493;-66
2022/08/12 07:30:31;;;;;;;10.20;4.70;;;31.20;80.20;;;;;;4989870;28;20462;-67
2022/08/12 07:33:03;;;;;;;6.63;3.97;;;31.70;78.20;;;;;;5001837;28;20461;-67
2022/08/12 07:35:31;;;;;;;12.20;4.93;;;32.00;76.00;;;;;;5003689;28;20462;-66
2022/08/12 07:37:59;;;;;;;6.43;3.93;;;32.20;75.80;;;;;;4988085;28;20485;-68
2022/08/12 07:40:28;;;;;;;7.60;4.70;;;32.80;74.00;;;;;;4989635;28;20562;-66
2022/08/12 07:42:55;;;;;;;4.13;3.40;;;33.40;71.70;;;;;;4993749;28;20849;-66
2022/08/12 07:45:23;;;;;;;4.10;3.70;;;33.50;69.40;;;;;;4994063;28;20538;-67
2022/08/12 07:47:50;;;;;;;6.43;3.80;;;33.50;68.00;;;;;;4995292;28;20525;-67
2022/08/12 07:50:20;;;;;;;6.27;4.90;;;33.70;67.00;;;;;;4999924;28;20469;-67
2022/08/12 07:52:47;;;;;;;7.20;4.23;;;33.80;64.50;;;;;;4997888;28;20469;-67
2022/08/12 07:55:16;;;;;;;8.90;3.90;;;34.30;64.00;;;;;;4996928;28;20481;-67
2022/08/12 07:57:57;;;;;;;5.30;3.50;;;34.40;61.00;;;;;;4994491;28;20496;-68
2022/08/12 08:00:24;;;;;;;4.07;3.00;;;34.50;60.70;;;;;;4994470;28;20469;-68
2022/08/12 08:02:53;;;;;;;5.13;3.90;;;34.00;59.60;;;;;;4993663;28;20461;-68
2022/08/12 08:05:24;;;;;;;20.23;3.93;;;33.90;60.50;;;;;;4996412;28;22417;-67
2022/08/12 08:07:52;;;;;;;3.53;3.20;;;34.10;58.00;;;;;;4988661;28;20506;-67
2022/08/12 08:10:19;;;;;;;3.80;2.97;;;34.20;58.70;;;;;;4996937;28;20465;-67
2022/08/12 08:12:56;;;;;;;6.70;3.87;;;34.60;56.00;;;;;;4990736;28;20466;-67
2022/08/12 08:15:24;;;;;;;12.60;4.20;;;34.80;55.80;;;;;;4997259;28;20540;-68
2022/08/12 08:17:58;;;;;;;3.57;3.27;;;35.00;56.80;;;;;;4995964;28;20542;-68
2022/08/12 08:20:28;;;;;;;3.73;3.33;;;35.70;55.50;;;;;;4999812;28;20530;-67
2022/08/12 08:22:56;;;;;;;3.97;3.67;;;36.30;53.00;;;;;;4994913;28;20480;-68
2022/08/12 08:25:29;;;;;;;5.97;3.63;;;35.90;53.90;;;;;;4997585;28;20996;-67
2022/08/12 08:27:57;;;;;;;6.03;3.77;;;36.20;53.30;;;;;;4993718;28;20481;-66
2022/08/12 08:30:24;;;;;;;8.47;3.33;;;36.60;52.60;;;;;;4997516;28;20508;-67
2022/08/12 08:32:51;;;;;;;4.87;3.53;;;36.80;51.30;;;;;;4995675;28;20462;-67
2022/08/12 08:35:18;;;;;;;3.27;3.07;;;36.50;51.80;;;;;;4995919;28;20851;-68
2022/08/12 08:37:47;;;;;;;5.63;4.37;;;37.00;51.00;;;;;;4989636;28;20481;-68
2022/08/12 08:42:58;;;;;;;4.97;3.13;;;37.80;49.30;;;;;;5006383;28;20435;-68
2022/08/12 08:45:26;;;;;;;3.80;3.40;;;37.90;49.90;;;;;;5004144;28;20544;-68
2022/08/12 08:47:53;;;;;;;12.63;3.90;;;38.50;48.10;;;;;;4999766;28;20580;-67
2022/08/12 08:50:20;;;;;;;10.57;3.47;;;37.60;48.30;;;;;;5006215;28;20545;-67
2022/08/12 08:52:48;;;;;;;3.63;3.33;;;38.00;47.20;;;;;;4992344;28;20500;-68
2022/08/12 08:55:17;;;;;;;3.87;3.53;;;37.90;46.10;;;;;;4999313;28;20461;-67
2022/08/12 08:57:48;;;;;;;4.50;3.10;;;38.40;45.80;;;;;;4995158;28;20488;-67
2022/08/12 09:00:16;;;;;;;7.60;3.10;;;38.00;47.00;;;;;;4998861;28;20552;-67
2022/08/12 09:02:43;;;;;;;5.93;3.40;;;38.20;45.90;;;;;;5006625;28;20568;-67
2022/08/12 09:05:10;;;;;;;3.30;2.90;;;38.10;45.00;;;;;;5007381;28;20734;-68
2022/08/12 09:07:43;;;;;;;6.00;2.93;;;38.10;44.80;;;;;;4997257;28;20502;-67
2022/08/12 09:10:15;;;;;;;5.00;2.63;;;37.20;45.60;;;;;;4996290;28;20461;-67
2022/08/12 09:15:27;;;;;;;15.63;2.70;;;37.20;44.00;;;;;;4993949;28;20457;-66
2022/08/12 09:17:54;;;;;;;4.30;3.90;;;37.00;44.90;;;;;;5006157;28;20620;-67
2022/08/12 09:20:24;;;;;;;5.60;3.27;;;37.70;45.00;;;;;;4994270;28;20464;-67
2022/08/12 09:22:50;;;;;;;5.60;2.93;;;38.10;44.70;;;;;;4985749;28;20465;-67
2022/08/12 09:25:20;;;;;;;2.73;2.53;;;38.00;43.00;;;;;;5002771;28;20461;-67
2022/08/12 09:27:47;;;;;;;3.87;2.17;;;38.30;42.20;;;;;;4999134;28;20485;-67
2022/08/12 09:30:16;;;;;;;2.57;2.37;;;38.50;42.70;;;;;;4991676;28;20951;-66
2022/08/12 09:32:49;;;;;;;11.33;2.67;;;39.30;41.00;;;;;;5000875;28;20453;-67
2022/08/12 09:35:19;;;;;;;2.40;2.20;;;40.20;40.50;;;;;;4996651;28;20457;-67
2022/08/12 09:37:47;;;;;;;2.90;2.23;;;40.10;39.00;;;;;;4992685;28;20832;-66
2022/08/12 09:40:14;;;;;;;4.73;2.40;;;39.20;39.40;;;;;;4982424;28;20581;-68
2022/08/12 09:45:36;;;;;;;2.47;2.23;;;38.70;39.50;;;;;;4956312;28;20458;-68
2022/08/12 09:48:07;;;;;;;2.20;2.00;;;39.40;39.70;;;;;;4996918;28;20487;-68
2022/08/12 09:50:35;;;;;;;5.23;2.43;;;39.20;38.70;;;;;;5003888;28;20493;-68
2022/08/12 09:53:06;;;;;;;2.50;2.13;;;39.30;39.30;;;;;;4991096;28;20552;-67
2022/08/12 09:55:34;;;;;;;8.53;2.73;;;40.10;38.90;;;;;;4994447;28;21000;-67
2022/08/12 09:58:03;;;;;;;2.10;1.90;;;40.60;38.40;;;;;;5004105;28;20489;-67
2022/08/12 10:00:33;;;;;;;2.80;2.37;;;40.70;38.70;;;;;;4994299;28;20466;-68
2022/08/12 10:03:03;;;;;;;2.43;2.23;;;40.60;37.20;;;;;;4990115;28;20570;-67
2022/08/12 10:05:32;;;;;;;3.20;2.90;;;40.70;36.50;;;;;;4997102;28;20485;-67
2022/08/12 10:08:00;;;;;;;6.57;2.97;;;39.50;37.70;;;;;;4988036;28;20481;-67
2022/08/12 10:10:27;;;;;;;2.63;2.43;;;39.80;38.90;;;;;;4993282;28;21132;-67
2022/08/12 10:15:45;;;;;;;2.50;2.30;;;40.80;37.20;;;;;;5001138;28;20452;-67
2022/08/12 10:18:11;;;;;;;2.30;1.77;;;40.30;37.90;;;;;;4997423;28;20493;-68
2022/08/12 10:20:38;;;;;;;5.23;2.40;;;40.20;36.80;;;;;;4996698;28;20469;-67
2022/08/12 10:23:05;;;;;;;3.60;2.57;;;39.70;36.90;;;;;;4996373;28;20461;-67
2022/08/12 10:31:03;;;;;;;2.40;2.20;;;40.00;36.60;;;;;;4992225;28;20471;-68
2022/08/12 10:33:30;;;;;;;3.53;1.90;;;40.90;35.90;;;;;;5002010;28;20461;-67
2022/08/12 10:35:58;;;;;;;2.60;1.73;;;41.10;36.40;;;;;;4999896;28;21165;-67
2022/08/12 10:38:25;;;;;;;3.47;2.30;;;40.20;35.80;;;;;;4995976;28;20981;-66
2022/08/12 10:43:42;;;;;;;1.93;1.83;;;39.20;36.00;;;;;;5004933;28;20453;-68
2022/08/12 10:46:16;;;;;;;3.00;2.30;;;39.60;36.30;;;;;;4994169;28;20462;-66
2022/08/12 10:48:47;;;;;;;2.73;2.27;;;40.10;35.70;;;;;;4998926;28;20489;-66
2022/08/12 10:51:17;;;;;;;2.63;2.43;;;40.30;35.00;;;;;;4989809;28;20468;-67
2022/08/12 10:53:45;;;;;;;4.57;2.17;;;39.40;35.60;;;;;;4995072;28;20458;-67
2022/08/12 10:56:13;;;;;;;2.20;2.00;;;39.40;36.00;;;;;;4997262;28;20457;-67
2022/08/12 10:58:39;;;;;;;2.17;1.97;;;39.80;35.70;;;;;;4984467;28;20498;-67
2022/08/12 11:01:09;;;;;;;3.33;2.40;;;38.50;35.90;;;;;;4992649;28;20473;-67
2022/08/12 11:03:37;;;;;;;5.03;2.30;;;38.30;36.20;;;;;;5000465;28;20984;-67
2022/08/12 11:06:06;;;;;;;2.63;2.43;;;38.70;35.80;;;;;;4998104;28;20464;-67
2022/08/12 11:08:36;;;;;;;3.27;1.90;;;40.00;35.10;;;;;;4991342;28;20803;-66
2022/08/12 11:11:04;;;;;;;8.83;2.60;;;40.10;35.00;;;;;;4996633;28;20547;-67
2022/08/12 11:13:31;;;;;;;2.87;2.30;;;39.40;35.10;;;;;;4991998;28;20652;-66
2022/08/12 11:15:58;;;;;;;2.40;2.20;;;39.30;35.10;;;;;;4995458;28;21411;-68
2022/08/12 11:18:25;;;;;;;4.73;2.50;;;39.70;35.10;;;;;;5001099;28;20500;-67
2022/08/12 11:20:53;;;;;;;2.93;2.13;;;39.70;35.50;;;;;;4995693;28;20844;-67
2022/08/12 11:23:21;;;;;;;2.47;1.93;;;39.80;35.50;;;;;;4991824;28;20468;-68
2022/08/12 11:25:48;;;;;;;2.70;2.17;;;39.30;35.60;;;;;;4995936;28;20469;-68
2022/08/12 11:28:15;;;;;;;5.97;2.93;;;39.60;35.40;;;;;;4995668;28;20507;-67
2022/08/12 11:30:43;;;;;;;2.97;2.20;;;38.50;36.00;;;;;;4997511;28;20654;-67
2022/08/12 11:33:10;;;;;;;5.27;2.33;;;38.10;36.50;;;;;;4992423;28;20465;-67
2022/08/12 11:35:40;;;;;;;3.77;2.30;;;39.70;36.10;;;;;;4994379;28;20464;-67
2022/08/12 11:38:08;;;;;;;4.13;2.17;;;41.00;35.40;;;;;;4988713;28;20782;-68
2022/08/12 11:40:35;;;;;;;2.23;2.03;;;41.90;34.60;;;;;;4995240;28;20489;-67
2022/08/12 11:43:02;;;;;;;1.90;1.80;;;41.80;33.60;;;;;;4991615;28;20473;-67
2022/08/12 11:45:30;;;;;;;2.30;1.83;;;41.70;34.80;;;;;;4989785;28;20453;-67
2022/08/12 11:47:58;;;;;;;5.63;1.87;;;40.60;34.50;;;;;;4997483;28;20909;-68
2022/08/12 11:50:28;;;;;;;2.37;2.17;;;40.90;34.10;;;;;;4996916;28;20545;-67
2022/08/12 11:52:54;;;;;;;2.83;2.10;;;40.40;34.50;;;;;;4990925;28;20462;-67
2022/08/12 11:55:26;;;;;;;3.80;1.83;;;40.70;33.30;;;;;;4996475;28;20457;-67
2022/08/12 11:57:54;;;;;;;2.90;1.77;;;40.40;32.80;;;;;;4974086;28;20970;-67
2022/08/12 12:00:25;;;;;;;4.50;2.60;;;40.10;32.50;;;;;;4981081;28;20461;-67
2022/08/12 12:02:52;;;;;;;2.27;1.83;;;39.80;33.80;;;;;;4980574;28;20533;-67
2022/08/12 12:05:19;;;;;;;2.60;1.73;;;40.90;33.00;;;;;;4992864;28;20460;-67
2022/08/12 12:07:47;;;;;;;2.07;1.87;;;40.50;33.20;;;;;;4991448;28;20489;-68
2022/08/12 12:10:15;;;;;;;1.77;1.47;;;41.00;32.70;;;;;;4987549;28;20832;-67
2022/08/12 12:12:47;;;;;;;1.93;1.70;;;41.30;31.30;;;;;;4986164;28;20461;-68
2022/08/12 12:15:14;;;;;;;1.93;1.80;;;39.80;30.80;;;;;;4982152;28;20975;-68
2022/08/12 12:17:42;;;;;;;1.60;1.50;;;38.80;31.20;;;;;;4980595;28;20592;-67
2022/08/12 12:20:11;;;;;;;5.20;1.77;;;38.60;31.20;;;;;;4982481;28;20485;-67
2022/08/12 12:22:39;;;;;;;2.80;1.60;;;38.80;31.30;;;;;;4988824;28;20465;-67
2022/08/12 12:25:06;;;;;;;1.93;1.83;;;39.70;30.80;;;;;;5001956;28;20647;-67
2022/08/12 12:27:50;;;;;;;2.53;2.33;;;40.40;31.00;;;;;;4990213;28;20481;-67
2022/08/12 12:30:17;;;;;;;2.93;1.50;;;40.10;31.30;;;;;;4991535;28;20464;-67
2022/08/12 12:32:44;;;;;;;3.30;1.43;;;39.80;30.90;;;;;;4993066;28;20460;-67
2022/08/12 12:35:11;;;;;;;1.70;1.60;;;39.70;31.00;;;;;;4993015;28;20480;-68
2022/08/12 12:37:51;;;;;;;2.63;1.67;;;40.20;31.10;;;;;;4987892;28;20964;-67
2022/08/12 12:40:18;;;;;;;2.10;1.70;;;40.10;30.70;;;;;;4994471;28;20954;-68
2022/08/12 12:42:45;;;;;;;1.83;1.70;;;39.40;31.60;;;;;;4994962;28;20468;-68
2022/08/12 12:45:15;;;;;;;2.10;1.90;;;40.30;31.70;;;;;;4997319;28;20453;-67
2022/08/12 12:47:57;;;;;;;2.77;1.93;;;41.30;31.20;;;;;;4992121;28;20490;-67
2022/08/12 12:50:25;;;;;;;3.80;1.77;;;42.10;30.90;;;;;;4997802;28;20532;-67
2022/08/12 12:52:55;;;;;;;1.20;1.00;;;42.50;30.20;;;;;;4993528;28;20457;-67
2022/08/12 12:55:22;;;;;;;4.70;1.50;;;41.60;29.70;;;;;;4993455;28;20466;-67
2022/08/12 12:57:49;;;;;;;2.03;1.90;;;39.70;30.40;;;;;;4992727;28;20488;-67
2022/08/12 13:00:18;;;;;;;2.10;1.90;;;39.80;29.90;;;;;;4993800;28;20568;-67
2022/08/12 13:02:51;;;;;;;2.43;1.40;;;39.80;29.80;;;;;;4979026;28;20805;-67
2022/08/12 13:05:19;;;;;;;3.20;1.67;;;39.20;29.10;;;;;;4993415;28;20500;-67
2022/08/12 13:07:49;;;;;;;4.20;1.50;;;38.70;29.90;;;;;;4980337;28;20482;-67
2022/08/12 13:10:16;;;;;;;7.50;1.90;;;38.60;29.60;;;;;;4981095;28;20910;-67
2022/08/12 13:12:43;;;;;;;2.50;2.03;;;39.10;30.60;;;;;;4976940;28;20457;-67
2022/08/12 13:15:14;;;;;;;4.47;1.93;;;39.80;30.70;;;;;;4988528;28;20453;-68
2022/08/12 13:17:46;;;;;;;2.73;2.53;;;39.90;30.80;;;;;;4990719;28;21370;-67
2022/08/12 13:20:16;;;;;;;2.10;1.63;;;40.10;30.60;;;;;;4983063;28;20507;-67
2022/08/12 13:22:46;;;;;;;2.37;1.50;;;39.50;30.80;;;;;;4972387;28;20462;-67
2022/08/12 13:25:14;;;;;;;1.67;1.50;;;39.70;31.10;;;;;;4982483;28;20927;-67
2022/08/12 13:27:44;;;;;;;1.60;1.50;;;39.80;30.60;;;;;;4983720;28;20876;-67
2022/08/12 13:30:12;;;;;;;1.53;1.43;;;39.70;31.30;;;;;;4980027;28;20457;-66
2022/08/12 13:32:42;;;;;;;2.20;2.00;;;40.40;30.80;;;;;;4978758;28;20468;-67
2022/08/12 13:35:10;;;;;;;2.70;1.97;;;40.30;30.70;;;;;;4983301;28;20469;-67
2022/08/12 13:37:39;;;;;;;3.60;1.60;;;39.90;30.50;;;;;;4994329;28;20481;-68
2022/08/12 13:40:09;;;;;;;2.07;1.70;;;40.30;30.20;;;;;;4995326;28;21142;-67
2022/08/12 13:42:39;;;;;;;2.50;1.80;;;39.40;30.20;;;;;;4996830;28;20823;-68
2022/08/12 13:45:07;;;;;;;2.97;1.60;;;38.70;31.00;;;;;;4992100;28;20462;-67
2022/08/12 13:47:55;;;;;;;2.53;2.00;;;38.20;30.90;;;;;;4988708;28;20621;-67
2022/08/12 13:50:28;;;;;;;1.67;1.43;;;38.50;31.40;;;;;;4982212;28;21172;-67
2022/08/12 13:52:55;;;;;;;4.90;2.33;;;39.50;31.10;;;;;;4978808;28;20568;-68
2022/08/12 13:55:24;;;;;;;2.10;1.50;;;40.40;30.60;;;;;;4986793;23;20722;-70
2022/08/12 13:57:52;;;;;;;3.90;1.90;;;39.60;30.90;;;;;;4975789;28;20458;-70
2022/08/12 14:00:19;;;;;;;1.87;1.70;;;38.80;31.60;;;;;;4990275;28;21062;-69
2022/08/12 14:02:46;;;;;;;1.73;1.63;;;39.20;31.20;;;;;;4992871;28;20552;-69
2022/08/12 14:05:13;;;;;;;2.40;2.20;;;38.90;31.90;;;;;;4986567;28;21799;-69
2022/08/12 14:07:55;;;;;;;2.90;2.13;;;39.20;31.90;;;;;;4975369;28;20948;-68
2022/08/12 14:10:39;;;;;;;2.50;2.30;;;39.40;31.70;;;;;;4961382;28;21219;-70
2022/08/12 14:13:07;;;;;;;8.73;2.57;;;38.80;31.80;;;;;;4974831;28;20462;-68
2022/08/12 14:15:35;;;;;;;2.27;2.07;;;39.10;32.50;;;;;;4977412;28;20490;-69
2022/08/12 14:18:13;;;;;;;2.33;1.70;;;39.40;32.10;;;;;;4983838;28;20466;-71
2022/08/12 14:20:41;;;;;;;1.97;1.77;;;39.30;31.60;;;;;;4978088;28;20576;-70
2022/08/12 14:23:10;;;;;;;2.63;2.43;;;37.80;32.30;;;;;;4975070;28;20462;-70
2022/08/12 14:25:38;;;;;;;2.23;1.77;;;38.10;32.40;;;;;;4971670;28;20482;-69
2022/08/12 14:28:10;;;;;;;2.83;1.80;;;38.70;32.40;;;;;;4979887;28;20491;-70
2022/08/12 14:30:45;;;;;;;1.53;1.40;;;38.90;32.00;;;;;;4977229;28;20469;-69
2022/08/12 14:33:15;;;;;;;7.83;2.50;;;38.30;32.80;;;;;;4966627;28;20497;-71
2022/08/12 14:35:42;;;;;;;7.67;2.63;;;36.90;33.80;;;;;;4964122;28;20485;-70
2022/08/12 14:38:23;;;;;;;2.77;2.10;;;36.30;34.60;;;;;;4971331;28;21882;-70
2022/08/12 14:40:51;;;;;;;2.80;1.60;;;35.70;34.90;;;;;;4971662;28;20875;-70
2022/08/12 14:43:18;;;;;;;2.33;1.63;;;35.00;34.90;;;;;;4980686;28;20982;-69